Huntington, New York
Current Conditions -  °F | °C
As of 4:53 PM on Thursday 27 Nov 2014 (Local Time) from KFRG Reporting Station
Overcast Overcast  
Wind Chill: 36°   Ceiling: 2200
Heat Index: 39°   Visibility: 10mi
Dew Point: 30°   Wind: 5mph
Humidity: 70%   Direction: 330°NNW
Pressure: 30"   Gusts: NA
Location:  40.87°N, 73.42°W
Report Text: KFRG 272153Z 33004KT 10SM OVC022 04/M01 A3000 RMK AO2 SLP159 T00391011
Loading
Personal Weather Stations






























Interactive Weather Map New forecast layout! Learn more

10-Day Weather Forecast

Advertisements
Track Severe Weather on mobile